Tiempo atmosférico en la estación meteorológica de Alicante/Alacant Aeropuerto, Alacant/Alicante (43 m.)



Fecha
DESCASC
Temp. máxima en grados centígrados (hora)
DESCASC
Temp. mínima en grados centígrados (hora)
DESCASC
Temp. media en grados centígrados
DESCASC
Racha de viento máxima en m/sg (hora)
DESCASC
Velocidad máxima media en intervalos de 10 minutos(hora)
DESCASC
Precipitaciones diarias en mm
DESCASC
Precipitaciones de 00:00 a 06:00 en mm
DESCASC
Precipitaciones de 06:00 a 12:00 en mm
DESCASC
Precipitaciones de 12:00 a 18:00 en mm
DESCASC
Precipitaciones de 18:00 a 24:00 en mm
DESCASC

Gráficas

Temp. máximas Temp. mínimas Temp. medias Precipitaciones Rachas de viento máximas Velocidades máximas media en intervalos de 10 minutos

Datos horarios

Fecha y hora oficial Temperatura (ºC) Velocidad del viento (km/h) Dirección del viento Racha (km/h) Dirección de racha Precipitación (mm) Presión (hPa) Tendencia (hPa) Humedad (%)
2019-12-09 23:00:00 14.3 18 Oeste 24 Oeste 0 1022.7 0.5 46
2019-12-09 22:00:00 13.7 9 Oeste 26 Noroeste 0 1023.1 1.6 49
2019-12-09 21:00:00 15.8 5 Norte 21 Noroeste 0 1022.5 2 41
2019-12-09 20:00:00 16.3 23 Noroeste 39 Noroeste 0 1022.2 2.2 40
2019-12-09 19:00:00 17.1 30 Noroeste 45 Noroeste 0 1021.5 1.8 37
2019-12-09 18:00:00 18 27 Noroeste 41 Noroeste 0 1020.5 0.9 34
2019-12-09 17:00:00 18.5 27 Noroeste 42 Noroeste 0 1020 -0.4 34
2019-12-09 16:00:00 19.1 29 Noroeste 46 Noroeste 0 1019.7 -1.5 37
2019-12-09 15:00:00 20 33 Oeste 52 Noroeste 0 1019.6 -2.2 34
2019-12-09 14:00:00 19.5 15 Oeste 46 Oeste 0 1020.4 -1.8 34
2019-12-09 13:00:00 18.3 32 Oeste 48 Oeste 0 1021.2 -0.7 43
2019-12-09 12:00:00 17.7 22 Oeste 39 Oeste 0 1021.8 0.9 46
2019-12-09 11:00:00 15.9 20 Oeste 35 Oeste 0 1022.2 1.8 53
2019-12-09 10:00:00 14.6 24 Oeste 39 Oeste 0 1021.9 2.1 58
2019-12-09 09:00:00 13.3 23 Noroeste 41 Noroeste 0 1020.9 1.4 65
2019-12-09 08:00:00 13.2 34 Oeste 52 Noroeste 0 1020.4 1.5 67
2019-12-09 07:00:00 13.3 14 Oeste 45 Noroeste 0 1019.8 1.1 69
2019-12-09 06:00:00 14 31 Noroeste 52 Noroeste 0 1019.5 1 70
2019-12-09 05:00:00 14.1 30 Oeste 54 Noroeste 0 1018.9 0.3 70
2019-12-09 04:00:00 14.7 28 Oeste 45 Oeste 0 1018.7 0.2 68
2019-12-09 03:00:00 15.1 30 Noroeste 48 Noroeste 0 1018.5 -0.3 68
2019-12-09 02:00:00 15.2 31 Noroeste 59 Noroeste 0 1018.6 0.1 66
2019-12-09 01:00:00 15.2 40 Noroeste 59 Noroeste 0 1018.5 -0.7 63
2019-12-09 00:00:00 14.8 27 Oeste 46 Noroeste 0 1018.8 -0.3 64
2019-12-08 23:00:00 14.9 34 Oeste 48 Oeste 0 1018.5 -0.5 62
2019-12-08 22:00:00 14.8 16 Oeste 30 Sudoeste 0 1019.2 0.8 64
2019-12-08 21:00:00 14.5 17 Oeste 24 Oeste 0 1019.1 0.8 68
2019-12-08 20:00:00 11.7 9 Sudoeste 22 Oeste 0 1019 0.9 74
2019-12-08 19:00:00 15 19 Oeste 28 Oeste 0 1018.4 0.3 59
2019-12-08 18:00:00 16 15 Oeste 22 Oeste 0 1018.3 0 57
2019-12-08 17:00:00 18.2 0 Calma 8 Norte 0 1018.1 -0.8 62
2019-12-08 16:00:00 17.1 2 Este 11 Norte 0 1018.1 -1.7 62
2019-12-08 15:00:00 16.4 9 Este 15 Este 0 1018.3 -2.3 66
2019-12-08 14:00:00 16.8 12 Nordeste 17 Este 0 1018.9 -1.8 61
2019-12-08 13:00:00 16.6 10 Este 18 Nordeste 0 1019.8 -0.7 65
2019-12-08 12:00:00 17.2 10 Noroeste 26 Oeste 0 1020.6 0.4 55
2019-12-08 11:00:00 15.9 16 Oeste 22 Oeste 0 1020.7 0.7 59
2019-12-08 10:00:00 14.3 0 Calma 8 Oeste 0 1020.5 0.9 66
2019-12-08 09:00:00 9.1 0 Calma 13 Oeste 0 1020.2 0.7 85
2019-12-08 08:00:00 8.9 3 Sudoeste 18 Oeste 0 1020 0.3 84
2019-12-08 07:00:00 8.7 12 Sudoeste 17 Oeste 0 1019.6 -0.4 86
2019-12-08 06:00:00 6.9 8 Sudoeste 15 Sudoeste 0 1019.5 -0.9 93
2019-12-08 05:00:00 8.4 9 Sudoeste 13 Sudoeste 0 1019.7 -0.8 87
2019-12-08 04:00:00 7.3 4 Oeste 13 Sudoeste 0 1020 -0.9 95
2019-12-08 03:00:00 8.3 11 Oeste 15 Oeste 0 1020.4 -0.8 91
2019-12-08 02:00:00 8.5 12 Oeste 15 Oeste 0 1020.5 -0.5 94
2019-12-08 01:00:00 9.1 12 Oeste 13 Oeste 0 1020.9 0 95
2019-12-08 00:00:00 8.7 9 Oeste 13 Oeste 0 1021.2 0.7 96
2019-12-07 23:00:00 8.9 8 Oeste -- -- 0 1021 0.7 94
2019-12-07 22:00:00 9.6 9 Oeste 9 Oeste 0 1020.9 1.1 94
2019-12-07 21:00:00 10 9 Oeste 11 Oeste 0 1020.5 1 93
2019-12-07 20:00:00 10.4 5 Oeste 11 Noroeste 0 1020.3 1 93
2019-12-07 19:00:00 12.2 5 Norte 11 Norte 0 1019.8 0.8 88
2019-12-07 18:00:00 13.2 5 Nordeste 13 Este 0 1019.5 0.9 84
2019-12-07 17:00:00 14.7 10 Este 15 Este 0 1019.3 0.4 75
2019-12-07 16:00:00 15.6 9 Este 18 Este 0 1019 -0.7 68
2019-12-07 15:00:00 16.6 11 Este 17 Este 0 1018.6 -1.6 62
2019-12-07 14:00:00 16.9 5 Este 13 Sur 0 1018.9 -1.6 65
2019-12-07 13:00:00 16.8 7 Sur 11 Sudoeste 0 1019.7 -0.4 63
2019-12-07 12:00:00 15.5 3 Sudoeste 11 Noroeste 0 1020.2 0.6 70
2019-12-07 11:00:00 13.5 5 Oeste 8 Oeste 0 1020.5 1.2 74
2019-12-07 10:00:00 11.8 4 Sudoeste 15 Oeste 0 1020.1 0.9 82
2019-12-07 09:00:00 9.8 10 Oeste 18 Noroeste 0 1019.6 0.7 87
2019-12-07 08:00:00 9 9 Oeste 13 Oeste 0 1019.3 0.3 88
2019-12-07 07:00:00 9.3 12 Noroeste 13 Noroeste 0 1019.2 -0.1 86
2019-12-07 06:00:00 9 6 Noroeste 9 Noroeste 0 1018.9 -0.6 90
2019-12-07 05:00:00 9.4 8 Noroeste 9 Noroeste 0 1019 -0.4 87
2019-12-07 04:00:00 10 8 Norte 9 Norte 0 1019.3 -0.1 86
2019-12-07 03:00:00 9.3 5 Noroeste 13 Noroeste 0 1019.5 -0.2 90
2019-12-07 02:00:00 9.2 11 Oeste 13 Oeste 0 1019.4 -0.3 91
2019-12-07 01:00:00 9.8 11 Oeste 17 Noroeste 0 1019.4 -0.3 88
2019-12-07 00:00:00 10.2 13 Noroeste 17 Noroeste 0 1019.7 0.3 88
2019-12-06 23:00:00 10.2 11 Oeste 13 Oeste 0 1019.7 0.5 91
2019-12-06 22:00:00 10.2 9 Oeste 15 Oeste 0 1019.7 1.4 90
2019-12-06 21:00:00 10.4 0 Calma 9 Norte 0 1019.4 1.6 92
2019-12-06 20:00:00 11.4 0 Calma 11 Norte 0 1019.2 1.3 93
2019-12-06 19:00:00 13.4 5 Norte 21 Este 0 1018.3 0.4 88
2019-12-06 18:00:00 14 14 Este 22 Este 0 1017.8 -0.2 87
2019-12-06 17:00:00 15.6 12 Este 22 Este 0 1017.9 -0.5 79
2019-12-06 16:00:00 16.1 13 Este 21 Este 0 1017.9 -1 74
2019-12-06 15:00:00 16.3 12 Sudeste 18 Sudeste 0 1018 -1.5 70
2019-12-06 14:00:00 16.8 9 Este 15 Sudeste 0 1018.4 -1.4 61
2019-12-06 13:00:00 16.8 8 Este 15 Este 0 1018.9 -0.6 61
2019-12-06 12:00:00 16.9 3 Nordeste 8 Nordeste 0 1019.5 0.9 59
2019-12-06 11:00:00 15.2 0 Calma 9 Norte 0 1019.8 1.4 67
2019-12-06 10:00:00 13.8 7 Noroeste 17 Noroeste 0 1019.5 1.6 75
2019-12-06 09:00:00 11 12 Noroeste 17 Noroeste 0 1018.6 1.2 87
2019-12-06 08:00:00 10.6 6 Oeste 11 Noroeste 0 1018.4 1.2 89
2019-12-06 07:00:00 10.3 7 Noroeste 11 Noroeste 0 1017.9 0.6 92
2019-12-06 06:00:00 10.6 8 Oeste 11 Oeste 0 1017.4 0.1 91
2019-12-06 05:00:00 10.6 6 Oeste 11 Noroeste 0 1017.2 0 92
2019-12-06 04:00:00 10.6 8 Noroeste 11 Noroeste 0 1017.3 0.1 92
2019-12-06 03:00:00 12.3 9 Norte 13 Norte 0 1017.3 -0.4 87
2019-12-06 02:00:00 11.6 5 Norte 15 Norte 0 1017.2 -0.4 92
2019-12-06 01:00:00 12.7 9 Norte 15 Norte 0 1017.2 0 87
2019-12-06 00:00:00 12.9 9 Norte 17 Norte 0 1017.7 0.9 89
2019-12-05 23:00:00 13.1 10 Nordeste 18 Norte 0 1017.6 1.2 88
2019-12-05 22:00:00 12.6 13 Norte 18 Norte 0.1 1017.2 1.8 88
2019-12-05 21:00:00 12.2 5 Noroeste 15 Norte 0 1016.8 1.9 91
2019-12-05 20:00:00 12.1 8 Norte 15 Norte 0 1016.4 2.5 90
2019-12-05 19:00:00 13.1 8 Nordeste 15 Nordeste 0 1015.4 2 87
2019-12-05 18:00:00 13.1 9 Nordeste 18 Este 0 1014.9 1.8 88
2019-12-05 17:00:00 14.6 15 Este 24 Este 0 1013.9 0.6 81
2019-12-05 16:00:00 15.4 18 Este 24 Este 0 1013.4 0 75
2019-12-05 15:00:00 15.5 13 Este 21 Este 0 1013.1 -0.6 76
2019-12-05 14:00:00 15.8 14 Este 22 Este 0 1013.3 0 76
2019-12-05 13:00:00 15.8 15 Este 26 Este 0 1013.4 1.1 76
2019-12-05 12:00:00 15.4 17 Este 28 Nordeste 0 1013.7 2.2 74
2019-12-05 11:00:00 14.9 15 Este 26 Nordeste 0 1013.3 2.9 77
2019-12-05 10:00:00 13.8 13 Nordeste 30 Nordeste 0 1012.3 2.9 78
2019-12-05 09:00:00 12.2 11 Norte 22 Nordeste 0 1011.5 3.1 83
2019-12-05 08:00:00 10.5 9 Norte 11 Norte 0 1010.4 2.3 90
2019-12-05 07:00:00 9.2 4 Oeste 9 Oeste 0 1009.4 1.7 89
2019-12-05 06:00:00 10.7 -- -- -- -- 0 1008.4 1.2 83
2019-12-05 05:00:00 11.3 13 Noroeste 18 Noroeste 0 1008.1 1.5 78
2019-12-05 04:00:00 10.6 8 Oeste 9 Sudoeste 0 1007.7 1.4 85
2019-12-05 03:00:00 11.7 9 Sudoeste 13 Sudoeste 0 1007.2 1.4 81
2019-12-05 02:00:00 10.8 4 Oeste 11 Sur 0 1006.6 1.1 86
2019-12-05 01:00:00 11.5 7 Oeste 15 Oeste 0 1006.3 1.2 80
2019-12-05 00:00:00 10.8 6 Sudoeste 13 Noroeste 0 1005.8 1.2 83
2019-12-04 23:00:00 12 8 Oeste 18 Oeste 0 1005.5 1.6 76
2019-12-04 22:00:00 12 11 Oeste 13 Oeste 0 1005.1 1.9 77
2019-12-04 21:00:00 10.5 9 Sudoeste 17 Noroeste 0 1004.6 1.7 84
2019-12-04 20:00:00 11 8 Oeste 18 Oeste 0 1003.9 1.2 82
2019-12-04 19:00:00 12.3 13 Noroeste 21 Noroeste 0 1003.2 1.3 75
2019-12-04 18:00:00 13.2 13 Noroeste 21 Noroeste 0 1002.9 1.5 72
2019-12-04 17:00:00 13.6 15 Noroeste 28 Noroeste 0 1002.7 1.6 70
2019-12-04 16:00:00 14.4 15 Oeste 26 Oeste 0 1001.9 0.8 70
2019-12-04 15:00:00 14.2 16 Oeste 26 Norte 0 1001.4 -0.1 73
2019-12-04 14:00:00 14.4 20 Noroeste 28 Noroeste 0 1001.1 -0.7 68
2019-12-04 13:00:00 12.9 11 Oeste 24 Oeste 0 1001.1 -0.6 85
2019-12-04 12:00:00 12.8 9 Sudoeste 17 Oeste 0 1001.5 1 90
2019-12-04 11:00:00 13 8 Sudoeste 18 Nordeste 0 1001.8 1.8 89
2019-12-04 10:00:00 11.6 8 Nordeste 18 Nordeste 0 1001.7 1.6 92
2019-12-04 09:00:00 10.7 7 Este 21 Norte 0 1000.5 0.6 95
2019-12-04 08:00:00 10.9 10 Noroeste 17 Noroeste 1.7 1000 0.2 92
2019-12-04 07:00:00 10.6 6 Noroeste 22 Nordeste 2.3 1000.1 -0.6 95
2019-12-04 06:00:00 11.5 12 Nordeste 30 Noroeste 1.4 999.9 -1.3 87
2019-12-04 05:00:00 11.3 17 Noroeste 26 Norte 4.4 999.8 -2.2 95
2019-12-04 04:00:00 11.6 14 Norte 24 Nordeste 2.9 1000.7 -2.5 93
2019-12-04 03:00:00 11.8 19 Norte 33 Norte 4.5 1001.2 -3.2 87
2019-12-04 02:00:00 12.7 26 Norte 41 Norte 0 1002 -3 74
2019-12-04 01:00:00 13.4 26 Norte 39 Norte 0 1003.2 -2.5 65
2019-12-04 00:00:00 12.4 19 Norte 33 Norte 0 1004.4 -1.8 65
2019-12-03 23:00:00 12.2 23 Norte 37 Norte 0 1005 -1.7 65
2019-12-03 22:00:00 12.4 22 Norte 32 Norte 0 1005.7 -1.1 64
2019-12-03 21:00:00 12.3 22 Norte 42 Nordeste 0 1006.2 -0.7 66
2019-12-03 20:00:00 12.3 27 Norte 42 Norte 0 1006.7 -0.3 67
2019-12-03 19:00:00 12 35 Nordeste 50 Nordeste 0 1006.8 -0.4 71
2019-12-03 18:00:00 11.1 20 Nordeste 32 Norte 0 1006.9 -0.7 74
2019-12-03 17:00:00 10.7 15 Norte 32 Nordeste 0.2 1007 -1 89
2019-12-03 16:00:00 10.7 24 Nordeste 45 Nordeste 2 1007.2 -1.9 91
2019-12-03 15:00:00 11.2 33 Nordeste 54 Nordeste 1 1007.6 -2.3 87
2019-12-03 14:00:00 12.7 34 Nordeste 55 Este 0.4 1008 -2.5 81
2019-12-03 13:00:00 11.6 23 Nordeste 54 Este 3.1 1009.1 -1 91
2019-12-03 12:00:00 13.6 27 Nordeste 58 Nordeste 0 1009.9 -0.2 68
2019-12-03 11:00:00 13.4 33 Nordeste 65 Nordeste 0 1010.5 0.5 70
2019-12-03 10:00:00 13.3 37 Nordeste 59 Nordeste 0 1010.1 0.4 73
2019-12-03 09:00:00 13.3 32 Nordeste 52 Nordeste 0 1010.1 1.1 75
2019-12-03 08:00:00 13.2 30 Nordeste 48 Nordeste 0 1010 0.5 75
2019-12-03 07:00:00 13.4 32 Nordeste 50 Nordeste 0 1009.7 -0.2 78
2019-12-03 06:00:00 13.2 27 Nordeste 55 Nordeste 0 1009 -1.7 78
2019-12-03 05:00:00 12.7 28 Nordeste 45 Nordeste 0 1009.5 -1.4 81
2019-12-03 04:00:00 12.8 32 Nordeste 52 Nordeste 0 1009.9 -1.7 79
2019-12-03 03:00:00 12.1 27 Nordeste 39 Nordeste 0 1010.7 -1 82
2019-12-03 02:00:00 11.7 27 Nordeste 48 Nordeste 4 1010.9 -0.6 93
2019-12-03 01:00:00 12.3 24 Nordeste 54 Nordeste 7.3 1011.6 0.4 96
2019-12-03 00:00:00 12.7 28 Nordeste 45 Nordeste 2.9 1011.7 0.6 95
2019-12-02 23:00:00 12.8 21 Nordeste 41 Nordeste 0.1 1011.5 0.5 96
2019-12-02 22:00:00 12.9 27 Nordeste 42 Nordeste 1 1011.2 0.7 96
2019-12-02 21:00:00 13 23 Nordeste 37 Este 1.2 1011.1 1.2 98
2019-12-02 20:00:00 12.9 14 Nordeste 22 Nordeste 2.5 1011 1.7 98
2019-12-02 19:00:00 12.5 15 Nordeste 33 Nordeste 1.9 1010.5 1.3 96
2019-12-02 18:00:00 13.6 21 Nordeste 42 Este 2.3 1009.9 1.1 96
2019-12-02 17:00:00 14.7 19 Este 32 Este 0 1009.3 0.3 89
2019-12-02 16:00:00 14.8 22 Este 30 Este 0 1009.2 0.2 85
2019-12-02 15:00:00 15.3 22 Este 30 Este 0 1008.8 -1.1 82
2019-12-02 14:00:00 15.9 15 Este 22 Este 0 1009 -0.8 73
2019-12-02 13:00:00 15.9 13 Este 18 Este 0 1009 -0.1 71
2019-12-02 12:00:00 15.6 10 Nordeste 18 Nordeste 0 1009.9 1.5 70
2019-12-02 11:00:00 15.3 12 Nordeste 21 Norte 0 1009.8 2 73
2019-12-02 10:00:00 13.5 8 Norte 17 Norte 0 1009.1 1.7 82
2019-12-02 09:00:00 12.2 11 Nordeste 24 Nordeste 0 1008.4 1.5 87
2019-12-02 08:00:00 11.8 11 Nordeste 24 Nordeste 0 1007.8 1 88
2019-12-02 07:00:00 12.1 15 Nordeste 28 Este 0 1007.4 0.4 88
2019-12-02 06:00:00 12.3 20 Nordeste 35 Este 1.9 1006.9 -0.2 86
2019-12-02 05:00:00 14.1 25 Este 42 Nordeste 0 1006.8 -0.2 78
2019-12-02 04:00:00 14 26 Este 41 Nordeste 0 1007 -0.3 82
2019-12-02 03:00:00 13.4 24 Nordeste 37 Este 1.8 1007.1 -0.4 88
2019-12-02 02:00:00 14.6 27 Este 37 Este 0 1007 -0.6 78
2019-12-02 01:00:00 14.1 21 Este 32 Este 0 1007.3 -0.3 83
2019-12-02 00:00:00 13.2 12 Nordeste 18 Norte 0 1007.5 -0.4 77
2019-12-01 23:00:00 13.4 13 Nordeste 22 Nordeste 0 1007.6 -0.1 78
2019-12-01 22:00:00 13.7 13 Norte 22 Norte 0 1007.6 0.5 78
2019-12-01 21:00:00 14.1 12 Norte 24 Este 0 1007.9 0.8 80
2019-12-01 20:00:00 14.5 15 Nordeste 24 Nordeste 0 1007.7 0.7 80
2019-12-01 19:00:00 13.8 14 Este 21 Este 0 1007.1 0 91
2019-12-01 18:00:00 14 12 Nordeste 21 Este 0 1007.1 0.2 90
2019-12-01 17:00:00 15.3 16 Nordeste 26 Este 0 1007 0 87
2019-12-01 16:00:00 16.1 17 Este 32 Este 0 1007.1 -0.5 86
2019-12-01 15:00:00 17.4 19 Este 32 Este 0 1006.9 -1.7 69
2019-12-01 14:00:00 19.6 13 Oeste 22 Oeste 0 1007 -2.2 48
2019-12-01 13:00:00 19.3 17 Oeste 32 Oeste 0 1007.6 -1.6 50
2019-12-01 12:00:00 18.7 18 Oeste 32 Oeste 0 1008.6 -0.6 53
2019-12-01 11:00:00 17.1 6 Noroeste 22 Norte 0 1009.2 0.4 61
2019-12-01 10:00:00 15.6 6 Este 13 Oeste 0 1009.2 0.4 67
2019-12-01 09:00:00 12.4 6 Sudoeste 18 Oeste 0 1009.2 0.3 80
2019-12-01 08:00:00 10 11 Oeste 15 Oeste 0 1008.8 -0.2 85
2019-12-01 07:00:00 7.5 7 Oeste 11 Oeste 0 1008.8 -0.6 95
2019-12-01 06:00:00 9.4 6 Noroeste 17 Oeste 0 1008.9 -1 93
2019-12-01 05:00:00 8.5 8 Sur 13 Oeste 0 1009 -1 96
2019-12-01 04:00:00 8.9 5 Noroeste 13 Sur 0 1009.4 -0.9 97
2019-12-01 03:00:00 9 6 Oeste 11 Oeste 0 1009.9 -0.9 95
2019-12-01 02:00:00 9.3 3 Sudoeste 15 Sudoeste 0 1010 -1.4 94
2019-12-01 01:00:00 11.3 9 Sudoeste 11 Sudoeste 0 1010.3 -1.8 90
2019-12-01 00:00:00 10.4 5 Oeste 11 Sudoeste 0 1010.8 -1.7 96
2019-11-30 23:00:00 10.7 7 Oeste 13 Oeste 0 1011.4 -1.3 95
2019-11-30 22:00:00 11.3 8 Oeste -- -- 0 1012.1 -0.6 96
2019-11-30 21:00:00 11.4 6 Oeste 9 Oeste 0 1012.5 -0.1 96
2019-11-30 20:00:00 12.7 5 Oeste 13 Sudoeste 0 1012.7 -0.1 94
2019-11-30 19:00:00 14.1 9 Sudoeste 13 Sur 0 1012.7 -0.6 91
2019-11-30 18:00:00 15.8 9 Sur 21 Sur 0 1012.6 -1.3 83
2019-11-30 17:00:00 17.7 10 Sur 22 Sur 0 1012.8 -1.9 74
2019-11-30 16:00:00 19.1 13 Sur 24 Sur 0 1013.3 -2.5 70
2019-11-30 15:00:00 20.8 13 Sur 26 Sudoeste 0 1013.9 -3 54
2019-11-30 14:00:00 20.3 16 Sudoeste 28 Sudoeste 0 1014.7 -2.7 55
2019-11-30 13:00:00 19.8 12 Sudoeste 21 Sudoeste 0 1015.8 -1.5 59
2019-11-30 12:00:00 19.8 13 Sudoeste 22 Oeste 0 1016.9 -0.5 59
2019-11-30 11:00:00 18.4 15 Oeste 24 Oeste 0 1017.4 0 63
2019-11-30 10:00:00 17.1 11 Sudoeste 17 Oeste 0 1017.3 0.4 68
2019-11-30 09:00:00 14.4 7 Sudoeste 13 Oeste 0 1017.4 0.6 76
2019-11-30 08:00:00 11.7 4 Oeste 22 Noroeste 0 1017.4 0.4 86
2019-11-30 07:00:00 13.1 13 Noroeste 18 Noroeste 0 1016.9 -0.1 80
2019-11-30 06:00:00 13.4 4 Oeste 13 Sudoeste 0 1016.8 -0.7 80
2019-11-30 05:00:00 13.3 5 Oeste 13 Oeste 0 1017 -0.2 81
2019-11-30 04:00:00 13.5 11 Noroeste 17 Noroeste 0 1017 -0.3 80
2019-11-30 03:00:00 13.1 11 Oeste 13 Oeste 0 1017.5 0.1 83
2019-11-30 02:00:00 12.7 12 Oeste 13 Oeste 0 1017.2 -0.1 84
2019-11-30 01:00:00 14.5 6 Nordeste 11 Este 0 1017.3 0.2 76
2019-11-30 00:00:00 15 6 Noroeste 18 Noroeste 0 1017.4 0.5 74
2019-11-29 23:00:00 17.3 5 Noroeste 24 Noroeste 0 1017.3 0.6 65
2019-11-29 22:00:00 17.6 13 Noroeste 24 Noroeste 0 1017.1 0.7 65
2019-11-29 21:00:00 18.3 2 Sudoeste 17 Noroeste 0 1016.9 1 62
2019-11-29 20:00:00 17.8 6 Oeste 28 Noroeste 0 1016.7 1.3 64
2019-11-29 19:00:00 18.4 18 Oeste 35 Noroeste 0 1016.4 1.2 62
2019-11-29 18:00:00 19.5 26 Noroeste 41 Oeste 0 1015.9 0.9 59
2019-11-29 17:00:00 19.9 23 Oeste 37 Noroeste 0 1015.4 0 57
2019-11-29 16:00:00 20.5 30 Oeste 42 Noroeste 0 1015.2 -0.1 55
2019-11-29 15:00:00 21.1 20 Oeste 41 Oeste 0 1015 -1 53
2019-11-29 14:00:00 20.9 33 Oeste 45 Noroeste 0 1015.4 -0.4 53
2019-11-29 13:00:00 21.3 28 Oeste 42 Oeste 0 1015.3 -0.2 52
2019-11-29 12:00:00 20.3 29 Noroeste 46 Oeste 0 1016 1 53
2019-11-29 11:00:00 20 28 Oeste 42 Oeste 0 1015.8 1.6 55
2019-11-29 10:00:00 18.7 24 Oeste 41 Oeste 0 1015.5 1.7 57
2019-11-29 09:00:00 17.3 26 Oeste 52 Oeste 0 1015 1.6 59
2019-11-29 08:00:00 16.4 27 Oeste 48 Oeste 0 1014.2 0.6 60
2019-11-29 07:00:00 14.6 21 Oeste 45 Oeste 0 1013.8 0.2 64
2019-11-29 06:00:00 11 23 Oeste 28 Oeste 0 1013.4 -0.4 77
2019-11-29 05:00:00 11.1 17 Sudoeste 22 Oeste 0 1013.6 -0.3 76
2019-11-29 04:00:00 11.5 10 Sudoeste 18 Oeste 0 1013.6 -0.6 72
2019-11-29 03:00:00 14.5 17 Oeste 28 Oeste 0 1013.8 -0.6 60
2019-11-29 02:00:00 12.4 4 Sudoeste 22 Sudoeste 0 1013.9 -0.5 70
2019-11-29 01:00:00 14.1 3 Oeste 30 Oeste 0 1014.2 0.1 62
2019-11-29 00:00:00 12.9 18 Oeste 30 Noroeste 0 1014.4 0.7 66
2019-11-28 23:00:00 14.7 22 Noroeste 42 Noroeste 0 1014.4 1.1 59
2019-11-28 22:00:00 14.8 28 Noroeste 41 Noroeste 0 1014.1 1 63
2019-11-28 21:00:00 14.9 24 Noroeste 35 Noroeste 0 1013.7 0.7 65
2019-11-28 20:00:00 14.9 15 Noroeste 32 Noroeste 0 1013.3 0.7 67
2019-11-28 19:00:00 13.4 9 Sudoeste 11 Sudoeste 0 1013.1 0.5 92
2019-11-28 18:00:00 15.1 7 Sudoeste 13 Sudoeste 0 1013 0.5 83
2019-11-28 17:00:00 17.3 7 Sur 24 Sur 0 1012.6 -0.4 69
2019-11-28 16:00:00 19.6 13 Sur 22 Oeste 0 1012.6 -1.1 53
2019-11-28 15:00:00 20.3 14 Oeste 32 Oeste 0 1012.5 -2 46
2019-11-28 14:00:00 19.7 22 Oeste 33 Oeste 0 1013 -1.9 48
2019-11-28 13:00:00 19.3 23 Oeste 39 Oeste 0 1013.7 -0.8 48
2019-11-28 12:00:00 18.8 22 Oeste 37 Oeste 0 1014.5 0.2 49
2019-11-28 11:00:00 17.6 18 Oeste 30 Oeste 0 1014.9 1.4 53
2019-11-28 10:00:00 15.4 10 Oeste 15 Sudoeste 0 1014.5 1.8 64
2019-11-28 09:00:00 12.6 7 Sur 15 Oeste 0 1014.3 2.2 70
2019-11-28 08:00:00 10.4 8 Oeste 15 Sudeste 0 1013.5 1.8 76
2019-11-28 07:00:00 11.2 14 Oeste 26 Oeste 0 1012.7 1 72
2019-11-28 06:00:00 10.2 3 Oeste 21 Sudoeste 0 1012.1 0.9 77
2019-11-28 05:00:00 10.7 12 Sudoeste 18 Sudoeste 0 1011.7 0.4 74
2019-11-28 04:00:00 12.8 11 Sur 22 Oeste 0 1011.7 0 64
2019-11-28 03:00:00 11.6 19 Oeste 24 Oeste 0 1011.2 -0.3 71
2019-11-28 02:00:00 11.2 8 Sudoeste 15 Noroeste 0 1011.3 0 73
2019-11-28 01:00:00 14.4 16 Noroeste 28 Oeste 0 1011.7 1.3 60
2019-11-28 00:00:00 13.9 17 Oeste 22 Noroeste 0 1011.5 1.9 62
2019-11-27 23:00:00 14.8 15 Oeste 22 Oeste 0 1011.3 2.4 57
2019-11-27 22:00:00 14.6 12 Oeste 35 Noroeste 0 1010.4 1.8 56
2019-11-27 21:00:00 17.8 33 Noroeste 50 Noroeste 0 1009.6 1.5 45
2019-11-27 20:00:00 17.1 34 Noroeste 46 Noroeste 0 1008.9 1.6 47
2019-11-27 19:00:00 17.3 27 Noroeste 48 Noroeste 0 1008.6 1.8 46
2019-11-27 18:00:00 18.3 32 Noroeste 46 Noroeste 0 1008.1 1.2 44
2019-11-27 17:00:00 20.1 22 Noroeste 42 Oeste 0 1007.3 0.4 46
2019-11-27 16:00:00 22 24 Oeste 42 Oeste 0 1006.8 -0.8 37
2019-11-27 15:00:00 22.5 20 Oeste 41 Oeste 0 1006.9 -1.9 44
2019-11-27 14:00:00 22.7 26 Oeste 39 Oeste 0 1006.9 -2.4 43
2019-11-27 06:00:00 11.2 8 Oeste 13 Nordeste -- 1006.5 -0.1 89
2019-11-27 05:00:00 12.6 6 Noroeste 21 Sudoeste -- 1006.2 -0.3 84
2019-11-27 04:00:00 10.9 14 Sudoeste 18 Sudoeste -- 1006.3 -0.6 92
2019-11-27 03:00:00 11.2 10 Oeste 17 Sudoeste -- 1006.6 -0.5 90
2019-11-27 02:00:00 12.5 10 Sur 15 Sudoeste -- 1006.5 -0.9 87
2019-11-27 01:00:00 10.9 8 Sudoeste 15 Sudoeste -- 1006.9 -0.7 93
2019-11-27 00:00:00 11.1 11 Sudoeste 13 Oeste -- 1007.1 -0.8 91
2019-11-26 23:00:00 11.3 12 Sur 15 Sur -- 1007.4 -0.5 92
2019-11-26 22:00:00 11.9 10 Oeste -- -- -- 1007.6 -0.5 92
2019-11-26 21:00:00 13.3 12 Sudoeste 17 Sudoeste -- 1007.9 0.2 88
2019-11-26 20:00:00 13.7 9 Oeste 11 Oeste -- 1007.9 0.6 86
2019-11-26 19:00:00 15.3 11 Sur 13 Sur -- 1008.1 0.5 82
2019-11-26 18:00:00 15.7 9 Sur 18 Sur -- 1007.7 -0.2 87
2019-11-26 17:00:00 18.9 10 Sur 24 Noroeste -- 1007.3 -1 67
2019-11-26 16:00:00 21.8 13 Oeste 37 Noroeste -- 1007.6 -1.6 55
2019-11-26 15:00:00 22.2 23 Noroeste 35 Oeste 0 1007.9 -2.7 51
2019-11-26 14:00:00 21.4 18 Sudoeste 32 Sudoeste 1 1008.3 -3.3 53
2019-11-26 13:00:00 20.3 17 Sudoeste 28 Sudoeste -- 1009.2 -2.4 55
2019-11-26 12:00:00 19.1 16 Sudoeste 28 Oeste 0 1010.6 -0.6 58
2019-11-26 11:00:00 17.4 15 Sudoeste 22 Oeste 0 1011.6 0.7 65
2019-11-26 10:00:00 14.3 13 Sudoeste 24 Oeste 0 1011.6 1.4 72
2019-11-26 09:00:00 12.6 11 Sur 17 Sur 0 1011.2 0.5 78
2019-11-26 08:00:00 12.2 14 Oeste 26 Oeste 0 1010.9 0 77
2019-11-26 07:00:00 16.2 22 Noroeste 41 Noroeste 0 1010.2 -1.1 59
2019-11-26 06:00:00 16.2 16 Noroeste 32 Noroeste 0 1010.7 -0.8 60
2019-11-26 05:00:00 14.3 16 Noroeste 21 Noroeste 0 1010.9 -0.6 71
2019-11-26 04:00:00 11.4 7 Oeste 13 Oeste 0 1011.3 -0.8 84
2019-11-26 03:00:00 11.9 10 Oeste 15 Oeste 0 1011.5 -0.8 86
2019-11-26 02:00:00 12.3 8 Sudoeste 15 Oeste 0 1011.5 -0.6 86
2019-11-26 01:00:00 12.6 12 Oeste 15 Oeste 0 1012.1 0 87
2019-11-26 00:00:00 13.9 4 Oeste 17 Oeste 0 1012.3 0.5 81
2019-11-25 23:00:00 13.4 11 Oeste 15 Oeste 0 1012.1 0.8 84
2019-11-25 22:00:00 15.3 8 Noroeste 15 Oeste 0 1012.1 1.1 77
2019-11-25 21:00:00 17.6 13 Oeste 18 Oeste 0 1011.8 1.2 67
2019-11-25 20:00:00 16.2 9 Oeste 15 Noroeste 0 1011.3 1.5 73
2019-11-25 19:00:00 17 10 Noroeste 15 Noroeste 0 1011 1.8 71
2019-11-25 18:00:00 19.3 14 Noroeste 30 Noroeste 0 1010.6 1.6 61
2019-11-25 17:00:00 18.2 5 Sur 18 Sur 0 1009.8 0.5 73
2019-11-25 16:00:00 20.8 13 Sur 24 Sudoeste 0 1009.2 -0.9 57
2019-11-25 15:00:00 21.3 13 Sudoeste 24 Oeste 0 1009 -1.8 54
2019-11-25 14:00:00 19.8 20 Sudoeste 30 Sudoeste 0 1009.3 -2.3 58
2019-11-25 13:00:00 19.9 14 Sudoeste 28 Sudoeste 0 1010.1 -1 57
2019-11-25 12:00:00 17.8 18 Oeste 26 Oeste 0 1010.8 0.1 61
2019-11-25 11:00:00 16.1 10 Sudoeste 17 Sur 0 1011.6 1 64
2019-11-25 10:00:00 13.1 13 Sur 24 Sudeste 0 1011.1 0.8 73
2019-11-25 09:00:00 11.9 9 Sudoeste 18 Oeste 0 1010.7 0.6 71
2019-11-25 08:00:00 10 15 Sudoeste 26 Sudoeste 0 1010.6 0.5 77
2019-11-25 07:00:00 9.8 13 Sudoeste 21 Sudoeste 0 1010.3 -0.2 79
2019-11-25 06:00:00 11.5 17 Sudoeste 24 Sudoeste 0 1010.1 -0.7 71
2019-11-25 05:00:00 11.4 10 Sur 21 Sur 0 1010.1 -1.1 70
2019-11-25 04:00:00 10.8 7 Sudoeste 13 Sudoeste 0 1010.5 -0.5 70
2019-11-25 03:00:00 10.7 5 Sur 22 Sudoeste 0 1010.8 -0.3 68
2019-11-25 02:00:00 12.7 11 Sur 32 Oeste 0 1011.2 -0.5 59
2019-11-25 01:00:00 11.1 19 Oeste 32 Oeste 0 1011 -0.3 62
2019-11-25 00:00:00 11.5 11 Sur 32 Sudoeste 0 1011.1 0.1 60
2019-11-24 23:00:00 12 8 Sudoeste 13 Oeste 0 1011.7 0.8 58
2019-11-24 22:00:00 12.9 3 Sur 24 Oeste 0 1011.3 0.9 56
2019-11-24 21:00:00 13 21 Oeste 41 Oeste 0 1011 1.1 55
2019-11-24 20:00:00 13.1 19 Oeste 32 Oeste 0 1010.9 1.4 53
2019-11-24 19:00:00 14 11 Oeste 37 Oeste 0 1010.4 0.9 48
2019-11-24 18:00:00 14.9 12 Noroeste 39 Noroeste 0 1009.9 1 41
2019-11-24 17:00:00 15.8 15 Oeste 32 Oeste 0 1009.5 0.2 43
2019-11-24 16:00:00 16.1 22 Oeste 39 Oeste 0 1009.5 0.1 44
2019-11-24 15:00:00 16.4 14 Oeste 33 Oeste 0 1008.9 -1.5 43
2019-11-24 14:00:00 16.6 25 Oeste 50 Oeste 0 1009.3 -0.9 43
2019-11-24 13:00:00 15.6 25 Noroeste 41 Noroeste 0 1009.4 0.1 46
2019-11-24 12:00:00 15.4 21 Oeste 39 Oeste 0 1010.4 2.4 46
2019-11-24 11:00:00 14.6 28 Oeste 52 Noroeste 0 1010.2 1.7 48
2019-11-24 10:00:00 12.9 36 Noroeste 59 Noroeste 0 1009.3 0.4 53
2019-11-24 09:00:00 12 46 Noroeste 68 Noroeste 0 1008 0.6 56
2019-11-24 08:00:00 11.3 40 Noroeste 59 Noroeste 0 1008.5 1.6 58
2019-11-24 07:00:00 10.3 23 Oeste 39 Noroeste 0 1008.9 2.1 61
2019-11-24 06:00:00 10.9 32 Noroeste 45 Noroeste 0 1007.4 1.1 58
2019-11-24 05:00:00 11 24 Noroeste 32 Noroeste 0 1006.9 1 57
2019-11-24 04:00:00 12 16 Oeste 30 Oeste 0 1006.8 1.1 52
2019-11-24 03:00:00 11.9 18 Oeste 30 Sudoeste 0 1006.3 1.8 52
2019-11-24 02:00:00 13 19 Oeste 39 Oeste 0 1005.9 1.6 50
2019-11-24 01:00:00 13.4 16 Oeste 48 Noroeste 0 1005.7 1.5 48
2019-11-24 00:00:00 13.9 19 Oeste 41 Noroeste 0 1004.5 0.9 47
2019-11-23 23:00:00 14 15 Oeste 28 Sudoeste 0 1004.3 1.8 46
2019-11-23 22:00:00 13.7 13 Sudoeste 35 Oeste 0 1004.2 2.5 49
2019-11-23 21:00:00 14.6 20 Oeste 52 Oeste 0 1003.6 2.7 46
2019-11-23 20:00:00 14.8 34 Oeste 59 Noroeste 0 1002.5 2.7 45
2019-11-23 19:00:00 14.9 35 Oeste 58 Oeste 0 1001.7 2.9 44
2019-11-23 18:00:00 15.3 35 Oeste 63 Oeste 0 1000.9 3.2 42
2019-11-23 17:00:00 16.2 39 Oeste 68 Noroeste 0 999.8 2.5 40
2019-11-23 16:00:00 16.2 44 Oeste 76 Oeste 0 998.8 1.9 41
2019-11-23 15:00:00 16.2 50 Oeste 78 Oeste 0 997.7 1.1 42
2019-11-23 14:00:00 16.1 39 Noroeste 61 Oeste 0 997.3 1.6 44
2019-11-23 13:00:00 15.4 39 Oeste 68 Noroeste 0 996.9 2.4 46
2019-11-23 12:00:00 15.8 38 Oeste 54 Sudoeste 0 996.6 3.2 47
2019-11-23 11:00:00 15.6 35 Oeste 63 Oeste 0 995.7 2.4 48
2019-11-23 10:00:00 14.2 33 Oeste 55 Oeste 0 994.5 2.3 54
2019-11-23 09:00:00 11.6 20 Sudoeste 28 Oeste 0 993.4 0.7 74
2019-11-23 08:00:00 10.1 14 Sudoeste 24 Sudoeste 0 993.3 1.4 81
2019-11-23 07:00:00 10.3 12 Sudoeste 21 Oeste 0 992.2 0.8 84
2019-11-23 06:00:00 10.9 11 Oeste 17 Sudoeste 0 992.7 0.9 92
2019-11-23 05:00:00 10.2 13 Oeste 18 Oeste 0 991.9 0.1 95
2019-11-23 04:00:00 10.3 10 Sudoeste 17 Sudoeste 0 991.4 -0.8 98
2019-11-23 03:00:00 11.3 12 Oeste 17 Oeste 0 991.8 -0.8 97
2019-11-23 02:00:00 12 13 Oeste 18 Oeste 0 991.8 -1 98
2019-11-23 01:00:00 10.9 10 Oeste 15 Oeste 0 992.2 -1.3 100
2019-11-23 00:00:00 12.4 9 Oeste 15 Noroeste 0 992.6 -2.5 98
2019-11-22 23:00:00 13 4 Noroeste 15 Norte 0 992.8 -2.3 100
2019-11-22 22:00:00 13.3 5 Sudeste 11 Sudeste 0.2 993.5 -2.2 100
2019-11-22 21:00:00 13.3 9 Noroeste 17 Nordeste 4.2 995.1 -1.1 100
2019-11-22 20:00:00 13 3 Sudoeste 9 Oeste 2.6 995.1 -1.6 100
2019-11-22 19:00:00 13.2 7 Sudoeste 15 Sudoeste 2.4 995.7 -1.6 99
2019-11-22 18:00:00 13.3 8 Sudoeste 13 Sudoeste 1.9 996.2 -1.9 98
2019-11-22 17:00:00 13.3 0 Calma 8 Oeste 1.1 996.7 -2.5 97
2019-11-22 16:00:00 13.6 7 Noroeste 13 Norte 0.1 997.3 -3 94
2019-11-22 15:00:00 13.4 0 Calma 8 Oeste 0 998.1 -4 92
2019-11-22 14:00:00 13.2 0 Calma 9 Sur 0 999.2 -3.9 89
2019-11-22 13:00:00 13.2 2 Sudeste 8 Sudeste 0.1 1000.3 -2.7 87
2019-11-22 12:00:00 12.6 0 Calma 8 Oeste 0.2 1002.1 -0.9 93
2019-11-22 11:00:00 12 4 Sur 9 Sur 0 1003.1 0.2 92
2019-11-22 10:00:00 11.7 0 Calma 11 Oeste 0 1003 0.2 91
2019-11-22 09:00:00 10.1 7 Sur 13 Oeste 0 1003 -0.3 91
2019-11-22 08:00:00 8.9 8 Oeste 13 Oeste 0 1002.9 -0.3 94
2019-11-22 07:00:00 9 5 Oeste 9 Oeste 0 1002.8 -0.9 94
2019-11-22 06:00:00 8.8 3 Sudoeste 21 Oeste 0 1003.3 -0.7 95
2019-11-22 05:00:00 7.8 9 Oeste 13 Oeste 0 1003.2 -1.1 98
2019-11-22 04:00:00 9.6 7 Sudoeste 9 Sudoeste 0 1003.7 -1 92
2019-11-22 03:00:00 10.9 4 Norte 9 Noroeste 0 1004 -1 89
2019-11-22 02:00:00 10.6 7 Oeste 9 Oeste 0 1004.3 -1.1 93
2019-11-22 01:00:00 10.8 7 Oeste 9 Oeste 0 1004.7 -1.2 93
2019-11-22 00:00:00 11 4 Oeste 8 Noroeste 0 1005 -0.8 94
2019-11-21 23:00:00 11.3 2 Noroeste 13 Norte 0.1 1005.4 -0.3 95
2019-11-21 22:00:00 11.6 5 Norte 11 Norte 0.9 1005.9 0.4 95
2019-11-21 21:00:00 12.4 6 Norte 15 Norte 0 1005.8 0.4 84
2019-11-21 20:00:00 12.5 0 Calma 8 Noroeste 0 1005.7 0.2 80
2019-11-21 19:00:00 12.6 5 Noroeste -- -- 0 1005.5 0.3 82
2019-11-21 18:00:00 13.3 -- -- -- -- 0 1005.4 -0.1 78
2019-11-21 17:00:00 14.5 6 Sudoeste 15 Sudoeste 0 1005.5 -0.5 70
2019-11-21 16:00:00 16 6 Sur 11 Sur 0 1005.2 -1.2 65
2019-11-21 15:00:00 14.9 9 Sudoeste 17 Sudoeste 0 1005.5 -1.7 70
2019-11-21 14:00:00 14.5 10 Sudoeste 15 Sudoeste 0 1006 -1.5 72
2019-11-21 13:00:00 15.4 5 Sur 11 Sudoeste 0 1006.4 -0.9 69
2019-11-21 12:00:00 13.9 6 Sur 13 Sur 0 1007.2 0.2 75
2019-11-21 11:00:00 12.1 0 Calma 11 Sudoeste 0 1007.5 1 79
2019-11-21 10:00:00 10.8 6 Sudoeste 11 Sur 0 1007.3 1.4 86
2019-11-21 09:00:00 9.4 5 Sur 22 Noroeste 0 1007 1.1 88
2019-11-21 08:00:00 -- -- -- -- -- -- -- -- --
2019-11-21 07:00:00 -- -- -- -- -- -- -- -- --
2019-11-21 06:00:00 -- -- -- -- -- -- -- -- --
2019-11-21 05:00:00 -- -- -- -- -- -- -- -- --
2019-11-21 04:00:00 -- -- -- -- -- -- -- -- --
2019-11-21 03:00:00 -- -- -- -- -- -- -- -- --
2019-11-21 02:00:00 -- -- -- -- -- -- -- -- --
2019-11-21 01:00:00 -- -- -- -- -- -- -- -- --
2019-11-21 00:00:00 -- -- -- -- -- -- -- -- --
2019-11-20 23:00:00 -- -- -- -- -- -- -- -- --
2019-11-20 22:00:00 -- -- -- -- -- -- -- -- --
2019-11-20 21:00:00 -- -- -- -- -- -- -- -- --
2019-11-20 20:00:00 -- -- -- -- -- -- -- -- --
2019-11-20 19:00:00 12.3 3 Oeste 5 Oeste 0 1006.6 -0.2 80
2019-11-20 18:00:00 12.3 0 Calma 11 Sur 0 1006.6 -0.4 80
2019-11-20 17:00:00 13.3 7 Sur 21 Sur 0 1006.7 -0.8 72
2019-11-20 16:00:00 15.2 12 Sur 18 Sur 0 1006.8 -1.4 63
2019-11-20 15:00:00 15.3 11 Sur 22 Sudoeste 0 1007 -2.1 59
2019-11-20 14:00:00 16 8 Sur 21 Sudoeste 0 1007.5 -2.3 58
2019-11-20 13:00:00 15.8 11 Sudoeste 18 Sudoeste 0 1008.2 -1.7 56
2019-11-20 12:00:00 15.3 7 Sudoeste 13 Sudoeste 0 1009.1 -0.5 47
2019-11-20 11:00:00 14.6 5 Sudoeste 11 Oeste 0 1009.8 0.2 49
2019-11-20 10:00:00 12.3 7 Sudoeste 15 Noroeste 0 1009.9 0.2 57
2019-11-20 09:00:00 9.7 10 Oeste 15 Noroeste 0 1009.6 0 64
2019-11-20 08:00:00 7.2 9 Oeste 13 Noroeste 0 1009.6 -0.1 72
2019-11-20 07:00:00 7.1 11 Oeste 17 Oeste 0 1009.7 -0.6 71
2019-11-20 06:00:00 8.5 15 Noroeste 22 Noroeste 0 1009.6 -1.2 65
2019-11-20 05:00:00 8.2 12 Noroeste 17 Oeste 0 1009.7 -1.4 68
2019-11-20 04:00:00 7.6 12 Oeste 17 Oeste 0 1010.3 -1.4 70
2019-11-20 03:00:00 8.4 14 Oeste 17 Noroeste 0 1010.8 -1.1 65
2019-11-20 02:00:00 7.9 11 Oeste 15 Oeste 0 1011.1 -1.3 69
2019-11-20 01:00:00 7.9 14 Oeste 17 Oeste 0 1011.7 -0.8 69
2019-11-20 00:00:00 8.7 11 Oeste 15 Noroeste 0 1011.9 -0.7 67
2019-11-19 23:00:00 9.1 9 Oeste 32 Oeste 0 1012.4 0 66
2019-11-19 22:00:00 9.2 9 Noroeste 13 Noroeste 0 1012.5 0.4 66
2019-11-19 21:00:00 9.1 10 Oeste 15 Sudoeste 0 1012.6 0.9 68
2019-11-19 20:00:00 10.4 8 Noroeste 18 Noroeste 0 1012.4 0.8 61
2019-11-19 19:00:00 10.4 11 Noroeste 15 Oeste 0 1012.1 0.5 60
2019-11-19 18:00:00 11.9 9 Oeste 24 Oeste 0 1011.7 0.1 54
2019-11-19 17:00:00 14.8 16 Oeste 30 Noroeste 0 1011.6 -0.6 42
2019-11-19 16:00:00 15.6 14 Noroeste 33 Noroeste 0 1011.6 -1.2 39
2019-11-19 15:00:00 15.6 22 Oeste 35 Oeste 0 1011.6 -2.1 38
2019-11-19 14:00:00 15.3 25 Noroeste 45 Noroeste 0 1012.2 -1.8 38
2019-11-19 13:00:00 14.5 30 Oeste 41 Oeste 0 1012.8 -1.5 40
2019-11-19 12:00:00 13.6 23 Oeste 37 Noroeste 0 1013.7 -0.3 44
2019-11-19 11:00:00 12.1 23 Oeste 37 Oeste 0 1014 0.5 45
2019-11-19 10:00:00 10.2 24 Oeste 37 Noroeste 0 1014.3 1 52
2019-11-19 09:00:00 8.7 18 Oeste 32 Oeste 0 1014 1.1 58
2019-11-19 08:00:00 7.5 21 Oeste 30 Oeste 0 1013.5 0.9 62
2019-11-19 07:00:00 6.9 17 Oeste 32 Oeste 0 1013.3 0.5 66
2019-11-19 06:00:00 7.5 22 Oeste 28 Oeste 0 1012.9 0.1 65
2019-11-19 05:00:00 7.3 6 Oeste 28 Sudoeste 0 1012.6 -0.5 67
2019-11-19 04:00:00 8.1 19 Noroeste 30 Noroeste 0 1012.8 -0.5 64
2019-11-19 03:00:00 8.3 17 Oeste 22 Oeste 0 1012.8 -0.2 63
2019-11-19 02:00:00 7.1 15 Oeste 21 Oeste 0 1013.1 0.4 68
2019-11-19 01:00:00 7.4 12 Oeste 21 Noroeste 0 1013.3 1.3 66
2019-11-19 00:00:00 8.4 17 Noroeste 24 Noroeste 0 1013 1.3 61
2019-11-18 23:00:00 8 18 Noroeste 28 Noroeste 0 1012.7 1.5 65
2019-11-18 22:00:00 10.5 15 Noroeste 30 Oeste 0 1012 1.7 52
2019-11-18 21:00:00 10.1 15 Oeste 32 Norte 0 1011.7 2.3 54
2019-11-18 20:00:00 12.6 13 Noroeste 22 Norte 0 1011.2 2.5 42
2019-11-18 19:00:00 13.3 13 Norte 28 Noroeste 0 1010.3 2.3 53
2019-11-18 18:00:00 13.6 11 Noroeste 24 Noroeste 0 1009.4 2.1 50
2019-11-18 17:00:00 15.2 17 Noroeste 39 Noroeste 0 1008.7 1.6 46
2019-11-18 16:00:00 16 29 Oeste 41 Oeste 0 1008 1.1 45
2019-11-18 15:00:00 16.8 22 Noroeste 35 Noroeste 0 1007.3 0.1 43
2019-11-18 14:00:00 16.5 22 Oeste 33 Oeste 0 1007.1 0.2 46
2019-11-18 13:00:00 16 18 Oeste 37 Noroeste 0 1006.9 1.1 49
2019-11-18 12:00:00 15 17 Noroeste 37 Norte 0 1007.2 2.8 51
2019-11-18 11:00:00 13.6 14 Oeste 32 Noroeste 0 1006.9 2.8 57
2019-11-18 10:00:00 12.2 12 Oeste 32 Noroeste 0.1 1005.8 2 62
2019-11-18 09:00:00 11.1 16 Noroeste 30 Noroeste 0 1004.4 0.5 68
2019-11-18 08:00:00 10.9 22 Noroeste 35 Noroeste 0 1004.1 0.1 73
2019-11-18 07:00:00 10.4 13 Oeste 30 Oeste 0 1003.8 -0.4 86
2019-11-18 06:00:00 10.6 15 Sudoeste 28 Sudoeste 0 1003.9 -1.3 86
2019-11-18 05:00:00 11 15 Oeste 22 Oeste 0 1004 -1.8 84
2019-11-18 04:00:00 11 7 Oeste 13 Oeste 0 1004.2 -2.5 89
2019-11-18 03:00:00 10.8 6 Sudoeste 11 Sudoeste 0.3 1005.2 -1.5 97
2019-11-18 02:00:00 11.2 9 Oeste 15 Noroeste 3.7 1005.8 -0.5 96
2019-11-18 01:00:00 10.2 5 Noroeste 9 Sur 2.6 1006.7 -0.3 96
2019-11-18 00:00:00 11 8 Sudoeste 15 Oeste 2.1 1006.7 -0.7 89
2019-11-17 23:00:00 12.6 14 Sudoeste 21 Oeste 0 1006.3 -1.4 65
2019-11-17 22:00:00 11.9 10 Sudoeste 13 Sudoeste 0 1007 -0.8 66
2019-11-17 21:00:00 14 12 Oeste 21 Oeste 0 1007.4 -0.5 57
2019-11-17 20:00:00 13.7 15 Sudoeste 24 Oeste 0 1007.7 -0.2 55
2019-11-17 19:00:00 14 14 Oeste 21 Oeste 0 1007.8 -0.6 51
2019-11-17 18:00:00 15.8 14 Oeste 32 Sudoeste 0 1007.9 -0.8 45
2019-11-17 17:00:00 16.7 24 Sudoeste 35 Sudoeste 0 1007.9 -1.6 40
2019-11-17 16:00:00 17 23 Sudoeste 41 Oeste 0 1008.4 -2.2 35
2019-11-17 15:00:00 16.1 20 Sudoeste 35 Sudoeste 0 1008.7 -3.1 38
2019-11-17 14:00:00 15.4 18 Sudoeste 30 Oeste 0 1009.5 -2.5 39
2019-11-17 13:00:00 15.4 13 Oeste 32 Oeste 0 1010.6 -1.7 39
2019-11-17 12:00:00 14.1 18 Sudoeste 33 Oeste 0 1011.8 -0.6 42
2019-11-17 11:00:00 12.6 23 Sudoeste 41 Oeste 0 1012 -0.4 47
2019-11-17 10:00:00 11 19 Oeste 35 Oeste 0 1012.3 0.4 50
2019-11-17 09:00:00 8.8 11 Sudoeste 21 Oeste 0 1012.4 0.5 58
2019-11-17 08:00:00 4 3 Sur 13 Oeste 0 1012.4 0.6 75
2019-11-17 07:00:00 5.6 8 Sudoeste 17 Sur 0 1011.9 0.3 66
2019-11-17 06:00:00 6.5 10 Sudoeste 24 Sudoeste 0 1011.9 -0.2 64
2019-11-17 05:00:00 7.8 9 Norte 33 Oeste 0 1011.8 -0.3 59
2019-11-17 04:00:00 9 13 Sudoeste 17 Oeste 0 1011.6 -0.1 54
2019-11-17 03:00:00 9.6 8 Sudoeste 15 Sur 0 1012.1 0 52
2019-11-17 02:00:00 9.5 14 Oeste 32 Oeste 0 1012.1 0 52
2019-11-17 01:00:00 10.8 24 Oeste 37 Oeste 0 1011.7 -0.2 47
2019-11-17 00:00:00 11.5 10 Sudoeste 30 Oeste 0 1012.1 0.5 44
2019-11-16 23:00:00 10.6 15 Oeste 26 Oeste 0 1012.1 0.8 49
2019-11-16 22:00:00 11.1 18 Oeste 30 Oeste 0 1011.9 1.2 46
2019-11-16 21:00:00 12 20 Oeste 35 Noroeste 0 1011.6 1.8 43
2019-11-16 20:00:00 11.7 18 Oeste 26 Oeste 0 1011.3 2.3 44
2019-11-16 19:00:00 12.2 12 Oeste 42 Noroeste 0 1010.7 2.4 42
2019-11-16 18:00:00 13.1 23 Oeste 37 Noroeste 0 1009.8 1.8 39
2019-11-16 17:00:00 14.8 25 Oeste 41 Noroeste 0 1009 1 36
2019-11-16 16:00:00 15.4 25 Noroeste 39 Oeste 0 1008.3 0.4 37
2019-11-16 15:00:00 15.6 21 Noroeste 33 Noroeste 0 1008 -0.5 36
2019-11-16 14:00:00 15.2 22 Oeste 35 Noroeste 0 1008 -0.3 36
2019-11-16 13:00:00 14.6 22 Oeste 37 Noroeste 0 1007.9 0.1 40
2019-11-16 12:00:00 13.2 25 Oeste 39 Noroeste 0 1008.5 1.1 44
2019-11-16 11:00:00 12 21 Noroeste 41 Noroeste 0 1008.3 2 48
2019-11-16 10:00:00 9.7 26 Oeste 41 Oeste 0 1007.8 2.4 56
2019-11-16 09:00:00 8.2 25 Noroeste 46 Noroeste 0 1007.4 2.8 60
2019-11-16 08:00:00 8.3 31 Noroeste 45 Noroeste 0 1006.3 1.9 60
2019-11-16 07:00:00 8.8 27 Noroeste 41 Noroeste 0 1005.4 1.5 59
2019-11-16 06:00:00 9.3 16 Noroeste 24 Oeste 0 1004.6 0.9 57
2019-11-16 05:00:00 9.2 8 Sur 30 Noroeste 0 1004.4 1.1 57
2019-11-16 04:00:00 9.6 16 Noroeste 30 Noroeste 0 1003.9 0.1 56
2019-11-16 03:00:00 9.4 7 Noroeste 24 Noroeste 0 1003.7 0 56
2019-11-16 02:00:00 10 14 Noroeste 28 Noroeste 0 1003.3 0 55
2019-11-16 01:00:00 10.1 17 Oeste 26 Oeste 0 1003.8 0.9 55
2019-11-16 00:00:00 8.7 15 Oeste 24 Oeste 0 1003.7 1.1 61
2019-11-15 23:00:00 8.9 10 Sudoeste 21 Oeste 0 1003.3 1 61
2019-11-15 22:00:00 9.2 10 Sudoeste 21 Sudoeste 0 1002.9 1.1 60
2019-11-15 21:00:00 8 11 Oeste 18 Oeste 0 1002.6 1.2 63
2019-11-15 20:00:00 8.4 13 Oeste 15 Oeste 0 1002.3 1.5 59
2019-11-15 19:00:00 9.8 12 Oeste 15 Oeste 0 1001.8 1.2 53
2019-11-15 18:00:00 11.7 12 Sudoeste 32 Oeste 0 1001.4 1 44
2019-11-15 17:00:00 13.6 23 Oeste 37 Oeste 0 1000.8 0.1 39
2019-11-15 16:00:00 13.6 22 Oeste 37 Oeste 0 1000.6 -0.3 42
2019-11-15 15:00:00 14.8 26 Oeste 45 Oeste 0 1000.4 -1 38
2019-11-15 14:00:00 14.4 30 Oeste 46 Oeste 0 1000.7 -1.2 39
2019-11-15 13:00:00 14.6 32 Oeste 46 Oeste 0 1000.9 -0.7 41
2019-11-15 12:00:00 13.6 27 Oeste 46 Oeste 0 1001.4 -0.2 44
2019-11-15 11:00:00 13.4 26 Oeste 41 Oeste 0 1001.9 1 45
2019-11-15 10:00:00 12.3 16 Oeste 26 Oeste 0 1001.6 1.2 51
2019-11-15 09:00:00 10.2 11 Oeste 15 Oeste 0 1001.6 1.7 62
2019-11-15 08:00:00 8.2 10 Sudoeste 13 Oeste 0 1000.9 1.2 73
2019-11-15 07:00:00 9 9 Oeste 17 Oeste 0 1000.4 0.9 68
2019-11-15 06:00:00 9.5 10 Sudoeste 21 Oeste 0 999.9 0.4 65
2019-11-15 05:00:00 9.2 14 Oeste 18 Oeste 0 999.7 0.8 65
2019-11-15 04:00:00 9.6 13 Sudoeste 18 Sur 0 999.5 0.8 63
2019-11-15 03:00:00 11.5 13 Sudoeste 28 Sudoeste 0 999.5 1 52
2019-11-15 02:00:00 9.1 12 Sudoeste 17 Sur 0 998.9 1.1 62
2019-11-15 01:00:00 12.2 9 Sur 37 Oeste 0 998.7 0.7 49
2019-11-15 00:00:00 12.3 19 Sudoeste 48 Oeste 0 998.5 0.3 47
2019-11-14 23:00:00 11.9 31 Oeste 54 Oeste 0 997.8 -0.6 50
2019-11-14 22:00:00 11.2 31 Oeste 50 Oeste 0 998 -0.9 54
2019-11-14 21:00:00 10.5 28 Oeste 37 Oeste 0 998.2 -0.2 60
2019-11-14 20:00:00 10.8 26 Oeste 32 Oeste 0 998.4 0.3 60
2019-11-14 19:00:00 10.1 12 Oeste 18 Sudoeste 0 998.9 0.5 66
2019-11-14 18:00:00 11.3 15 Oeste 37 Oeste 0 998.4 -0.4 62
2019-11-14 17:00:00 12 26 Oeste 41 Oeste 0 998.1 -0.4 60
2019-11-14 16:00:00 11.8 20 Oeste 33 Oeste 0 998.4 1 63
2019-11-14 15:00:00 11.3 24 Oeste 50 Noroeste 0.5 998.8 -0.1 76
2019-11-14 14:00:00 11.8 37 Noroeste 58 Noroeste 0.3 998.5 -1.5 77
2019-11-14 13:00:00 15.6 15 Sudoeste 28 Sudoeste 0 997.4 -2.6 54
2019-11-14 12:00:00 15.3 11 Sur 18 Sur 0 998.9 -1.3 57
2019-11-14 11:00:00 15.8 10 Sudoeste 21 Oeste 0 1000 -0.3 52
2019-11-14 10:00:00 11.8 9 Oeste 17 Oeste 0 1000 -0.7 81
2019-11-14 09:00:00 12.4 9 Sudoeste 11 Oeste 0 1000.2 -1.3 78
2019-11-14 08:00:00 9 8 Sudoeste 15 Sudoeste 0 1000.3 -2.1 95
2019-11-14 07:00:00 9.9 12 Sudoeste 15 Oeste 0 1000.7 -3 95
2019-11-14 06:00:00 10.8 5 Oeste 9 Oeste 0 1001.5 -3.9 96
2019-11-14 05:00:00 10.4 7 Oeste 11 Sudoeste 0 1002.4 -3.8 98
2019-11-14 04:00:00 11.4 9 Oeste -- -- 0 1003.7 -3.6 98
2019-11-14 03:00:00 11.4 6 Noroeste 8 Oeste 0 1005.4 -2.8 98
2019-11-14 02:00:00 11.8 6 Noroeste 9 Oeste 0 1006.2 -2.9 95
2019-11-14 01:00:00 12.7 6 Noroeste 9 Noroeste 0 1007.3 -1.7 93
2019-11-14 00:00:00 14.2 4 Norte 8 Noroeste 0 1008.2 -0.7 89
2019-11-13 23:00:00 14.7 3 Sudoeste 15 Norte 0 1009.1 0.5 87
2019-11-13 22:00:00 13.6 6 Noroeste 9 Noroeste 0 1009 1.1 91
2019-11-13 21:00:00 14.1 0 Calma 9 Sudeste 0 1008.9 1.9 89
2019-11-13 20:00:00 15 9 Este 15 Este 0 1008.6 2.9 87
2019-11-13 19:00:00 15.5 11 Sudeste 18 Este 0 1007.9 3.5 84
2019-11-13 18:00:00 16.4 9 Este 35 Norte 0 1007 3.1 80
2019-11-13 17:00:00 21.7 23 Noroeste 46 Noroeste 0 1005.7 2.7 36
2019-11-13 16:00:00 21.8 29 Noroeste 45 Noroeste 0 1004.4 1.4 42
2019-11-13 15:00:00 21.6 33 Noroeste 63 Oeste 0 1003.9 0.7 46
2019-11-13 14:00:00 22 37 Oeste 67 Oeste 0 1003 -0.5 44
2019-11-13 13:00:00 22.1 37 Noroeste 65 Oeste 0 1003 -0.4 44
2019-11-13 12:00:00 19 18 Sudoeste 32 Sudoeste 0 1003.2 0.2 53
2019-11-13 11:00:00 18.3 17 Sudoeste 35 Oeste 0 1003.5 0.6 53
2019-11-13 10:00:00 17.4 21 Sudoeste 32 Sudoeste 0 1003.4 0.4 54
2019-11-13 09:00:00 14.8 18 Oeste 30 Oeste 0 1003 -0.4 59
2019-11-13 08:00:00 13.5 14 Sudoeste 24 Sudoeste 0 1002.9 -0.8 60
2019-11-13 07:00:00 12.8 9 Sudoeste 24 Sudoeste 0 1003 -1.3 64
2019-11-13 06:00:00 11.8 11 Oeste 22 Sudoeste 0.4 1003.4 -1.5 74
2019-11-13 05:00:00 13.8 12 Sudoeste 21 Sudoeste 0 1003.7 -2.3 54
2019-11-13 04:00:00 13.1 13 Sudoeste 17 Sudoeste 0 1004.3 -2.4 55
2019-11-13 03:00:00 12.3 7 Oeste 13 Oeste 0 1004.9 -2.1 60
2019-11-13 02:00:00 13.2 9 Sudoeste 21 Sudoeste 0 1006 -1.7 56
2019-11-13 01:00:00 14 13 Sudoeste 21 Sudoeste 0 1006.7 -0.8 50
2019-11-13 00:00:00 14.5 9 Sudoeste 33 Oeste 0 1007 -0.8 46
2019-11-12 23:00:00 15 22 Oeste 35 Oeste 0 1007.7 0.2 43
2019-11-12 22:00:00 14.2 26 Oeste 35 Oeste 0 1007.5 0.1 42
2019-11-12 21:00:00 14.2 16 Oeste 28 Oeste 0 1007.8 0.6 44
2019-11-12 20:00:00 15.3 24 Oeste 35 Oeste 0 1007.5 0.7 40
2019-11-12 19:00:00 16 22 Oeste 37 Oeste 0 1007.4 0.7 37
2019-11-12 18:00:00 16.5 14 Noroeste 41 Oeste 0 1007.2 0.4 36
2019-11-12 17:00:00 18.3 23 Oeste 41 Oeste 0 1006.8 -0.9 34
2019-11-12 16:00:00 18.6 28 Oeste 42 Noroeste 0 1006.7 -1.9 34
2019-11-12 15:00:00 19 24 Oeste 37 Noroeste 0 1006.8 -2.8 30
2019-11-12 14:00:00 18.4 14 Oeste 30 Oeste 0 1007.7 -1.8 29
2019-11-12 13:00:00 17.6 18 Oeste 33 Oeste 0 1008.6 -0.7 31
2019-11-12 12:00:00 16.6 23 Oeste 33 Oeste 0 1009.6 0.3 33
2019-11-12 11:00:00 15.3 23 Oeste 32 Oeste 0 1009.5 0.8 37
2019-11-12 10:00:00 13.7 19 Oeste 30 Oeste 0 1009.3 1.2 40
2019-11-12 09:00:00 11.7 22 Noroeste 39 Noroeste 0 1009.3 0.8 46
2019-11-12 08:00:00 10.6 26 Oeste 37 Noroeste 0 1008.7 0.1 49
2019-11-12 07:00:00 10.7 17 Noroeste 37 Noroeste 0 1008.1 -0.4 50
2019-11-12 06:00:00 11 15 Noroeste 45 Noroeste 0 1008.5 -0.3 50
2019-11-12 05:00:00 11.3 21 Noroeste 35 Noroeste 0 1008.6 -0.2 51
2019-11-12 04:00:00 11.7 22 Noroeste 32 Noroeste 0 1008.5 -0.7 49
2019-11-12 03:00:00 11.4 10 Oeste 28 Noroeste 0 1008.8 -0.3 55
2019-11-12 02:00:00 12.4 21 Oeste 35 Oeste 0 1008.8 -0.7 59
2019-11-12 01:00:00 12.9 18 Oeste 41 Noroeste 0 1009.2 -0.4 59
2019-11-12 00:00:00 13.5 27 Noroeste 42 Oeste 0 1009.1 -0.1 60
2019-11-11 23:00:00 13.4 25 Oeste 39 Noroeste 0 1009.5 0.7 61
2019-11-11 22:00:00 14.6 26 Oeste 45 Noroeste 0 1009.6 1 56
2019-11-11 21:00:00 15.2 27 Oeste 41 Noroeste 0 1009.2 1.2 52
2019-11-11 20:00:00 15.1 15 Oeste 32 Noroeste 0 1008.8 1 53
2019-11-11 19:00:00 15.6 17 Noroeste 33 Oeste 0 1008.6 0.9 50
2019-11-11 18:00:00 15.9 15 Oeste 28 Noroeste 0 1008 0.2 48
2019-11-11 17:00:00 16.7 19 Noroeste 41 Noroeste 0 1007.8 -0.1 43
2019-11-11 16:00:00 16.7 25 Noroeste 54 Noroeste 0 1007.7 -1.2 41
2019-11-11 15:00:00 17.1 32 Noroeste 48 Noroeste 0 1007.8 -2.4 38
2019-11-11 14:00:00 16.9 31 Noroeste 42 Noroeste 0 1007.9 -2.7 37
2019-11-11 13:00:00 15.9 31 Noroeste 50 Noroeste 0 1008.9 -2.1 40
2019-11-11 12:00:00 15.4 23 Oeste 37 Noroeste 0 1010.2 -1.1 42
2019-11-11 11:00:00 13.8 24 Noroeste 48 Noroeste 0 1010.6 -0.6 45
2019-11-11 10:00:00 11.7 28 Noroeste 46 Noroeste 0 1011 0.4 50
2019-11-11 09:00:00 10.8 27 Noroeste 41 Noroeste 0 1011.3 0.4 51
2019-11-11 08:00:00 9.6 25 Noroeste 41 Noroeste 0 1011.2 0.1 53
2019-11-11 07:00:00 9 24 Oeste 41 Oeste 0 1010.6 -0.2 54
2019-11-11 06:00:00 9.3 24 Oeste 33 Oeste 0 1010.9 -0.3 52
2019-11-11 05:00:00 9.5 14 Oeste 35 Oeste 0 1011.1 0.4 50
2019-11-11 04:00:00 9.8 23 Noroeste 39 Noroeste 0 1010.8 1.1 51
2019-11-11 03:00:00 10.3 26 Noroeste 45 Noroeste 0 1011.2 1.1 49
2019-11-11 02:00:00 10.8 29 Oeste 59 Noroeste 0 1010.7 0.8 48
2019-11-11 01:00:00 11.3 39 Noroeste 52 Oeste 0 1009.7 -0.4 48
2019-11-11 00:00:00 11.2 13 Oeste 33 Oeste 0 1010.1 0.2 52
2019-11-10 23:00:00 11.8 26 Oeste 39 Oeste 0 1009.9 0.4 53
2019-11-10 22:00:00 12.3 15 Oeste 41 Noroeste 0 1010.1 0.6 52
2019-11-10 21:00:00 13.1 23 Oeste 52 Noroeste 0 1009.9 1.1 48
2019-11-10 20:00:00 13.9 41 Noroeste 59 Noroeste 0 1009.5 2.1 43
2019-11-10 19:00:00 14.2 30 Noroeste 54 Oeste 0 1009.5 2.3 43
2019-11-10 18:00:00 14.6 32 Noroeste 65 Noroeste 0 1008.8 1.3 41
2019-11-10 17:00:00 15.1 48 Noroeste 74 Noroeste 0 1007.4 -0.8 37
2019-11-10 16:00:00 16.1 49 Noroeste 72 Noroeste 0 1007.2 -0.9 35
2019-11-10 15:00:00 16.4 49 Noroeste 68 Noroeste 0 1007.5 -1.5 34
2019-11-10 14:00:00 16.2 42 Noroeste 67 Noroeste 0 1008.2 -1.7 36
2019-11-10 13:00:00 15.8 46 Noroeste 67 Noroeste 0 1008.1 -1 38
2019-11-10 12:00:00 15.3 44 Noroeste 61 Noroeste 0 1009 -0.4 41
2019-11-10 11:00:00 14.5 37 Noroeste 82 Noroeste 0 1009.9 0.6 42
2019-11-10 10:00:00 13.8 50 Noroeste 72 Noroeste 0 1009.1 0.3 44
2019-11-10 09:00:00 12.5 44 Noroeste 63 Noroeste 0 1009.4 0.4 48
2019-11-10 08:00:00 11.2 25 Oeste 59 Noroeste 0 1009.3 0.3 59
2019-11-10 07:00:00 11.3 22 Oeste 58 Noroeste 0 1008.8 -0.6 58
2019-11-10 06:00:00 14.1 22 Noroeste 45 Noroeste 0 1009 -0.5 57
2019-11-10 05:00:00 14.6 14 Noroeste 39 Noroeste 0 1009 -1 56
2019-11-10 04:00:00 14.3 0 Calma 13 Sudoeste 0 1009.4 -0.9 66
2019-11-10 03:00:00 15.1 12 Sudoeste 26 Oeste 0 1009.5 -1.4 60
2019-11-10 02:00:00 15 15 Oeste 24 Oeste 0 1010 -1.4 60
2019-11-10 01:00:00 12.9 11 Oeste 15 Oeste 0 1010.3 -1.8 71
2019-11-10 00:00:00 12.6 9 Oeste 26 Oeste 0 1010.9 -2 72